Time;durP1;ratioP1;P1;durP2;ratioP2;P2;SDS_P1;SDS_P2;PMS_P1;PMS_P2;Temp;Humidity;BMP_temperature;BMP_pressure;BME280_temperature;BME280_humidity;BME280_pressure;Samples;Min_cycle;Max_cycle;Signal;HPM_P1;HPM_P2
2022/07/06 00:01:23;;;;;;;1.75;0.75;;;;;;;;;;4996451;28;99233;-61
2022/07/06 00:03:49;;;;;;;1.05;0.90;;;;;;;;;;4992899;28;99425;-61
2022/07/06 00:06:21;;;;;;;1.25;0.70;;;;;;;;;;4992393;28;100851;-61
2022/07/06 00:08:47;;;;;;;1.33;0.80;;;;;;;;;;4992818;28;100683;-62
2022/07/06 00:11:13;;;;;;;1.15;0.70;;;;;;;;;;4993311;28;98502;-61
2022/07/06 00:13:40;;;;;;;0.77;0.77;;;;;;;;;;4993486;28;99216;-61
2022/07/06 00:16:06;;;;;;;2.70;0.90;;;;;;;;;;4992599;28;100523;-62
2022/07/06 00:18:32;;;;;;;2.10;0.82;;;;;;;;;;4993250;28;98454;-61
2022/07/06 00:20:59;;;;;;;0.70;0.70;;;;;;;;;;4993819;28;99159;-62
2022/07/06 00:23:25;;;;;;;0.90;0.90;;;;;;;;;;4996068;28;99637;-62
2022/07/06 00:25:51;;;;;;;0.80;0.70;;;;;;;;;;4993535;28;100271;-61
2022/07/06 00:28:18;;;;;;;0.70;0.70;;;;;;;;;;4992071;28;100343;-61
2022/07/06 00:30:45;;;;;;;2.50;0.80;;;;;;;;;;4991854;28;98543;-61
2022/07/06 00:33:11;;;;;;;3.55;0.80;;;;;;;;;;4993256;28;99185;-61
2022/07/06 00:35:37;;;;;;;2.90;0.88;;;;;;;;;;4992746;28;99559;-61
2022/07/06 00:38:04;;;;;;;1.80;1.00;;;;;;;;;;4993022;28;98463;-61
2022/07/06 00:40:30;;;;;;;1.05;0.80;;;;;;;;;;4993180;28;99329;-61
2022/07/06 00:42:57;;;;;;;0.80;0.80;;;;;;;;;;4992586;28;99614;-61
2022/07/06 00:45:23;;;;;;;1.48;1.00;;;;;;;;;;4996819;28;97728;-61
2022/07/06 00:47:50;;;;;;;1.10;0.80;;;;;;;;;;4992720;28;100780;-61
2022/07/06 00:50:22;;;;;;;1.40;0.65;;;;;;;;;;4992787;28;98569;-61
2022/07/06 00:52:56;;;;;;;1.00;0.77;;;;;;;;;;4992670;28;100265;-62
2022/07/06 00:55:23;;;;;;;1.10;0.70;;;;;;;;;;4991296;28;99741;-61
2022/07/06 00:57:50;;;;;;;1.58;1.00;;;;;;;;;;4993124;28;98482;-61
2022/07/06 01:00:18;;;;;;;1.48;0.70;;;;;;;;;;4992869;28;99314;-62
2022/07/06 01:02:46;;;;;;;1.48;0.73;;;;;;;;;;4991712;28;100571;-62
2022/07/06 01:05:13;;;;;;;1.83;0.90;;;;;;;;;;4991817;28;98563;-61
2022/07/06 01:07:46;;;;;;;1.05;0.82;;;;;;;;;;4995567;28;99346;-61
2022/07/06 01:10:14;;;;;;;0.73;0.73;;;;;;;;;;4992908;28;97798;-61
2022/07/06 01:12:41;;;;;;;0.80;0.75;;;;;;;;;;4992643;28;98444;-61
2022/07/06 01:15:11;;;;;;;1.00;0.70;;;;;;;;;;4992066;28;99709;-62
2022/07/06 01:17:41;;;;;;;1.20;0.80;;;;;;;;;;4991276;28;99277;-62
2022/07/06 01:20:11;;;;;;;1.23;0.80;;;;;;;;;;4992096;28;99912;-61
2022/07/06 01:22:38;;;;;;;0.88;0.75;;;;;;;;;;4992232;28;99498;-62
2022/07/06 01:25:05;;;;;;;0.73;0.70;;;;;;;;;;4991387;28;98545;-61
2022/07/06 01:27:34;;;;;;;1.40;0.70;;;;;;;;;;4991209;28;99448;-61
2022/07/06 01:30:00;;;;;;;2.60;0.85;;;;;;;;;;4994986;28;99788;-61
2022/07/06 01:32:27;;;;;;;1.02;0.82;;;;;;;;;;4992128;28;98907;-61
2022/07/06 01:34:53;;;;;;;1.75;0.75;;;;;;;;;;4992598;28;100355;-61
2022/07/06 01:37:19;;;;;;;0.95;0.80;;;;;;;;;;4992323;28;98518;-61
2022/07/06 01:39:46;;;;;;;0.77;0.65;;;;;;;;;;4991977;28;98989;-62
2022/07/06 01:42:12;;;;;;;2.70;0.73;;;;;;;;;;4991397;28;100242;-61
2022/07/06 01:44:38;;;;;;;1.30;0.60;;;;;;;;;;4991982;28;98670;-61
2022/07/06 01:47:04;;;;;;;1.08;0.80;;;;;;;;;;4992354;28;100218;-61
2022/07/06 01:49:31;;;;;;;0.80;0.70;;;;;;;;;;4995000;28;98556;-61
2022/07/06 01:51:57;;;;;;;0.68;0.68;;;;;;;;;;4992075;28;100569;-61
2022/07/06 01:54:23;;;;;;;0.73;0.60;;;;;;;;;;4991717;28;100577;-61
2022/07/06 01:56:49;;;;;;;1.08;0.73;;;;;;;;;;4991930;28;98490;-62
2022/07/06 01:59:16;;;;;;;1.55;0.70;;;;;;;;;;4991933;28;99507;-61
2022/07/06 02:01:42;;;;;;;2.03;0.70;;;;;;;;;;4991140;28;99453;-61
2022/07/06 02:04:08;;;;;;;1.02;0.60;;;;;;;;;;4991595;28;98601;-61
2022/07/06 02:06:35;;;;;;;0.80;0.63;;;;;;;;;;4991538;28;100160;-61
2022/07/06 02:09:01;;;;;;;0.50;0.50;;;;;;;;;;4990106;28;99830;-61
2022/07/06 02:11:28;;;;;;;1.13;0.70;;;;;;;;;;4995243;28;98572;-61
2022/07/06 02:13:54;;;;;;;1.25;0.73;;;;;;;;;;4990891;28;99473;-61
2022/07/06 02:16:20;;;;;;;1.02;0.77;;;;;;;;;;4990982;28;98613;-62
2022/07/06 02:18:47;;;;;;;1.10;0.73;;;;;;;;;;4991474;28;99402;-61
2022/07/06 02:21:13;;;;;;;0.90;0.73;;;;;;;;;;4991137;28;99566;-61
2022/07/06 02:23:39;;;;;;;0.70;0.60;;;;;;;;;;4992257;28;97765;-61
2022/07/06 02:26:06;;;;;;;0.60;0.60;;;;;;;;;;4990155;28;99095;-62
2022/07/06 02:28:32;;;;;;;1.05;0.60;;;;;;;;;;4990609;28;99620;-61
2022/07/06 02:30:58;;;;;;;0.60;0.60;;;;;;;;;;4990820;28;99368;-61
2022/07/06 02:33:24;;;;;;;1.13;0.70;;;;;;;;;;4994425;28;100722;-62
2022/07/06 02:35:51;;;;;;;0.80;0.70;;;;;;;;;;4991119;28;98527;-61
2022/07/06 02:38:17;;;;;;;0.88;0.63;;;;;;;;;;4990057;28;99146;-62
2022/07/06 02:40:43;;;;;;;1.00;0.63;;;;;;;;;;4990881;28;100796;-61
2022/07/06 02:43:09;;;;;;;1.17;0.52;;;;;;;;;;4991441;28;98940;-62
2022/07/06 02:45:36;;;;;;;0.73;0.70;;;;;;;;;;4990993;28;99170;-61
2022/07/06 02:48:02;;;;;;;1.35;0.90;;;;;;;;;;4991176;28;98941;-62
2022/07/06 02:50:29;;;;;;;2.40;0.60;;;;;;;;;;4991373;28;98542;-61
2022/07/06 02:52:55;;;;;;;0.60;0.40;;;;;;;;;;4990984;28;99232;-61
2022/07/06 02:55:21;;;;;;;0.98;0.70;;;;;;;;;;4993465;28;101537;-62
2022/07/06 02:57:48;;;;;;;1.25;0.60;;;;;;;;;;4989823;28;99907;-62
2022/07/06 03:00:14;;;;;;;1.55;0.88;;;;;;;;;;4990666;28;99564;-61
2022/07/06 03:02:40;;;;;;;0.65;0.65;;;;;;;;;;4990678;28;98486;-61
2022/07/06 03:05:07;;;;;;;0.73;0.68;;;;;;;;;;4990849;28;99305;-61
2022/07/06 03:07:33;;;;;;;0.57;0.57;;;;;;;;;;4990700;28;99814;-61
2022/07/06 03:10:00;;;;;;;0.68;0.55;;;;;;;;;;4990805;28;98516;-62
2022/07/06 03:12:26;;;;;;;1.92;0.73;;;;;;;;;;4991134;28;99156;-61
2022/07/06 03:14:52;;;;;;;1.40;0.60;;;;;;;;;;4990434;28;100824;-61
2022/07/06 03:17:18;;;;;;;0.63;0.63;;;;;;;;;;4993234;28;98572;-61
2022/07/06 03:19:45;;;;;;;1.65;0.73;;;;;;;;;;4988684;28;101254;-61
2022/07/06 03:22:11;;;;;;;0.63;0.60;;;;;;;;;;4991042;28;98563;-61
2022/07/06 03:24:37;;;;;;;0.63;0.57;;;;;;;;;;4990075;28;99398;-61
2022/07/06 03:27:04;;;;;;;0.55;0.45;;;;;;;;;;4991733;28;99288;-61
2022/07/06 03:29:30;;;;;;;0.82;0.63;;;;;;;;;;4994192;28;98536;-61
2022/07/06 03:31:56;;;;;;;0.70;0.65;;;;;;;;;;4994179;28;99162;-61
2022/07/06 03:34:23;;;;;;;0.63;0.57;;;;;;;;;;4993463;28;99518;-61
2022/07/06 03:36:49;;;;;;;0.57;0.55;;;;;;;;;;4994859;28;97774;-62
2022/07/06 03:39:15;;;;;;;2.60;0.60;;;;;;;;;;4996900;28;98738;-63
2022/07/06 03:41:42;;;;;;;0.60;0.60;;;;;;;;;;4993612;28;98530;-61
2022/07/06 03:44:08;;;;;;;0.90;0.65;;;;;;;;;;4993618;28;100106;-61
2022/07/06 03:46:34;;;;;;;1.45;0.68;;;;;;;;;;4993504;28;99604;-61
2022/07/06 03:49:00;;;;;;;0.90;0.57;;;;;;;;;;4993944;28;98639;-61
2022/07/06 03:51:27;;;;;;;0.90;0.68;;;;;;;;;;4993526;28;99173;-61
2022/07/06 03:53:53;;;;;;;0.45;0.43;;;;;;;;;;4993386;28;100129;-61
2022/07/06 03:56:28;;;;;;;1.92;0.77;;;;;;;;;;4993598;28;98505;-62
2022/07/06 03:58:55;;;;;;;2.00;0.82;;;;;;;;;;4997113;28;99490;-61
2022/07/06 04:01:21;;;;;;;0.77;0.50;;;;;;;;;;4993974;28;97878;-61
2022/07/06 04:03:48;;;;;;;0.85;0.50;;;;;;;;;;4993385;28;98505;-62
2022/07/06 04:06:14;;;;;;;0.98;0.85;;;;;;;;;;4993133;28;99583;-62
2022/07/06 04:08:40;;;;;;;0.52;0.50;;;;;;;;;;4993311;28;99666;-61
2022/07/06 04:11:07;;;;;;;0.80;0.55;;;;;;;;;;4993415;28;99905;-61
2022/07/06 04:13:33;;;;;;;1.45;0.80;;;;;;;;;;4993160;28;100823;-61
2022/07/06 04:16:00;;;;;;;0.88;0.50;;;;;;;;;;4993112;28;98514;-61
2022/07/06 04:18:26;;;;;;;1.33;0.50;;;;;;;;;;4993423;28;99504;-61
2022/07/06 04:20:54;;;;;;;1.30;0.60;;;;;;;;;;4995178;28;100538;-61
2022/07/06 04:23:20;;;;;;;0.52;0.45;;;;;;;;;;4993638;28;99366;-61
2022/07/06 04:25:46;;;;;;;1.13;0.50;;;;;;;;;;4993577;28;99886;-61
2022/07/06 04:28:12;;;;;;;0.75;0.50;;;;;;;;;;4992187;28;98600;-61
2022/07/06 04:30:39;;;;;;;0.85;0.60;;;;;;;;;;4993037;28;99303;-61
2022/07/06 04:33:05;;;;;;;1.38;0.70;;;;;;;;;;4992466;28;100295;-62
2022/07/06 04:35:31;;;;;;;0.88;0.60;;;;;;;;;;4992715;28;98655;-61
2022/07/06 04:37:57;;;;;;;0.60;0.52;;;;;;;;;;4992804;28;99298;-61
2022/07/06 04:40:24;;;;;;;0.40;0.40;;;;;;;;;;4992847;28;99549;-61
2022/07/06 04:42:50;;;;;;;0.82;0.65;;;;;;;;;;4996548;28;98510;-61
2022/07/06 04:45:16;;;;;;;0.50;0.40;;;;;;;;;;4992315;28;99478;-61
2022/07/06 04:47:44;;;;;;;0.93;0.50;;;;;;;;;;4992736;28;98649;-61
2022/07/06 04:50:11;;;;;;;1.48;0.60;;;;;;;;;;4993065;28;99147;-61
2022/07/06 04:52:37;;;;;;;1.45;0.50;;;;;;;;;;4992397;28;99490;-62
2022/07/06 04:55:08;;;;;;;1.27;0.52;;;;;;;;;;4991918;28;98642;-61
2022/07/06 04:57:34;;;;;;;0.60;0.40;;;;;;;;;;4992437;28;99301;-61
2022/07/06 05:00:01;;;;;;;0.43;0.43;;;;;;;;;;4992803;28;102261;-61
2022/07/06 05:02:28;;;;;;;1.40;0.70;;;;;;;;;;4992224;28;98497;-61
2022/07/06 05:04:54;;;;;;;0.57;0.40;;;;;;;;;;4995728;28;100489;-61
2022/07/06 05:07:20;;;;;;;0.73;0.50;;;;;;;;;;4992491;28;98519;-61
2022/07/06 05:09:47;;;;;;;0.63;0.45;;;;;;;;;;4992813;28;100188;-61
2022/07/06 05:12:17;;;;;;;1.00;0.57;;;;;;;;;;4991989;28;99529;-61
2022/07/06 05:14:43;;;;;;;1.90;0.95;;;;;;;;;;4992860;28;97809;-61
2022/07/06 05:17:10;;;;;;;1.67;0.57;;;;;;;;;;4991880;28;99046;-61
2022/07/06 05:19:36;;;;;;;1.60;0.43;;;;;;;;;;4992089;28;99510;-61
2022/07/06 05:22:02;;;;;;;0.70;0.47;;;;;;;;;;4992066;28;99361;-61
2022/07/06 05:24:28;;;;;;;2.65;0.63;;;;;;;;;;4992651;28;100913;-61
2022/07/06 05:26:55;;;;;;;0.65;0.40;;;;;;;;;;4995556;28;99454;-61
2022/07/06 05:29:21;;;;;;;0.60;0.55;;;;;;;;;;4992421;28;99130;-61
2022/07/06 05:31:47;;;;;;;1.80;0.80;;;;;;;;;;4991651;28;99560;-61
2022/07/06 05:34:14;;;;;;;1.23;0.70;;;;;;;;;;4992147;28;98500;-61
2022/07/06 05:36:40;;;;;;;0.90;0.47;;;;;;;;;;4992336;28;99151;-61
2022/07/06 05:39:06;;;;;;;0.40;0.40;;;;;;;;;;4992148;28;98926;-61
2022/07/06 05:41:32;;;;;;;0.77;0.52;;;;;;;;;;4992179;28;98524;-61
2022/07/06 05:43:59;;;;;;;0.68;0.47;;;;;;;;;;4992128;28;99488;-61
2022/07/06 05:46:25;;;;;;;1.65;0.52;;;;;;;;;;4990949;28;100187;-61
2022/07/06 05:51:36;;;;;;;0.82;0.60;;;;;;;;;;4991781;28;100555;-61
2022/07/06 05:54:02;;;;;;;1.42;0.57;;;;;;;;;;4991660;28;98587;-61
2022/07/06 05:56:28;;;;;;;0.30;0.30;;;;;;;;;;4991587;28;99438;-61
2022/07/06 05:58:55;;;;;;;1.20;0.70;;;;;;;;;;4990349;28;99537;-61
2022/07/06 06:01:21;;;;;;;0.65;0.65;;;;;;;;;;4991780;28;98639;-61
2022/07/06 06:03:47;;;;;;;1.48;0.70;;;;;;;;;;4992087;28;99144;-61
2022/07/06 06:06:14;;;;;;;2.03;0.40;;;;;;;;;;4991100;28;99586;-61
2022/07/06 06:08:40;;;;;;;0.50;0.40;;;;;;;;;;4995242;28;98817;-61
2022/07/06 06:11:06;;;;;;;0.40;0.40;;;;;;;;;;4990649;28;100973;-61
2022/07/06 06:13:36;;;;;;;2.88;0.60;;;;;;;;;;4991403;28;98555;-61
2022/07/06 06:16:03;;;;;;;0.52;0.52;;;;;;;;;;4991075;28;99265;-61
2022/07/06 06:18:29;;;;;;;1.02;0.43;;;;;;;;;;4991178;28;99514;-61
2022/07/06 06:20:56;;;;;;;1.63;0.50;;;;;;;;;;4991824;28;98592;-61
2022/07/06 06:23:22;;;;;;;1.35;0.50;;;;;;;;;;4991370;28;99209;-61
2022/07/06 06:25:49;;;;;;;1.25;0.60;;;;;;;;;;4991149;28;99541;-63
2022/07/06 06:28:15;;;;;;;1.27;0.50;;;;;;;;;;4992140;28;97814;-61
2022/07/06 06:30:41;;;;;;;0.38;0.38;;;;;;;;;;4994402;28;98446;-61
2022/07/06 06:33:15;;;;;;;0.35;0.35;;;;;;;;;;4991042;28;98512;-61
2022/07/06 06:35:45;;;;;;;4.38;0.82;;;;;;;;;;4990734;28;99246;-61
2022/07/06 06:38:12;;;;;;;0.38;0.38;;;;;;;;;;4990842;28;99680;-61
2022/07/06 06:40:38;;;;;;;1.58;0.50;;;;;;;;;;4990937;28;98572;-61
2022/07/06 06:43:04;;;;;;;0.50;0.40;;;;;;;;;;4991142;28;99631;-61
2022/07/06 06:45:31;;;;;;;1.50;0.57;;;;;;;;;;4990596;28;99841;-61
2022/07/06 06:47:57;;;;;;;0.80;0.60;;;;;;;;;;4991114;28;98483;-61
2022/07/06 06:50:23;;;;;;;1.58;0.50;;;;;;;;;;4990923;28;99683;-61
2022/07/06 06:52:50;;;;;;;1.85;0.55;;;;;;;;;;4994341;28;98806;-61
2022/07/06 06:55:16;;;;;;;1.48;0.60;;;;;;;;;;4990980;28;98578;-61
2022/07/06 06:57:43;;;;;;;0.55;0.55;;;;;;;;;;4990528;28;99520;-61
2022/07/06 07:00:10;;;;;;;0.82;0.50;;;;;;;;;;4990536;28;99303;-61
2022/07/06 07:02:36;;;;;;;1.63;0.80;;;;;;;;;;4990502;28;99894;-61
2022/07/06 07:05:03;;;;;;;2.75;0.45;;;;;;;;;;4990653;28;100479;-61
2022/07/06 07:07:29;;;;;;;0.40;0.40;;;;;;;;;;4990709;28;98511;-62
2022/07/06 07:09:55;;;;;;;1.42;0.60;;;;;;;;;;4991072;28;100460;-61
2022/07/06 07:12:22;;;;;;;1.45;0.40;;;;;;;;;;4990371;28;99518;-62
2022/07/06 07:14:48;;;;;;;0.55;0.38;;;;;;;;;;4994044;28;98574;-61
2022/07/06 07:17:15;;;;;;;2.47;0.70;;;;;;;;;;4990180;28;98977;-61
2022/07/06 07:19:41;;;;;;;0.40;0.40;;;;;;;;;;4990799;28;98537;-61
2022/07/06 07:22:07;;;;;;;2.35;0.60;;;;;;;;;;4990469;28;100395;-61
2022/07/06 07:24:34;;;;;;;0.50;0.50;;;;;;;;;;4989863;28;101236;-61
2022/07/06 07:27:00;;;;;;;0.73;0.30;;;;;;;;;;4990544;28;98509;-61
2022/07/06 07:29:26;;;;;;;2.60;0.45;;;;;;;;;;4990764;28;99609;-61
2022/07/06 07:31:52;;;;;;;0.70;0.38;;;;;;;;;;4990324;28;99452;-62
2022/07/06 07:34:19;;;;;;;0.30;0.30;;;;;;;;;;4990716;28;98518;-61
2022/07/06 07:36:45;;;;;;;2.63;0.80;;;;;;;;;;4993279;28;99304;-61
2022/07/06 07:39:11;;;;;;;0.32;0.25;;;;;;;;;;4990616;28;98629;-61
2022/07/06 07:41:38;;;;;;;0.30;0.30;;;;;;;;;;4990802;28;99218;-61
2022/07/06 07:44:04;;;;;;;1.40;0.60;;;;;;;;;;4990269;28;99596;-62
2022/07/06 07:46:31;;;;;;;0.45;0.40;;;;;;;;;;4990510;28;98511;-61
2022/07/06 07:48:57;;;;;;;1.52;0.50;;;;;;;;;;4989705;28;99656;-61
2022/07/06 07:51:23;;;;;;;1.73;0.40;;;;;;;;;;4989885;28;100730;-61
2022/07/06 07:53:50;;;;;;;0.85;0.50;;;;;;;;;;4990380;28;98572;-61
2022/07/06 07:56:16;;;;;;;0.77;0.50;;;;;;;;;;4993113;28;99162;-61
2022/07/06 07:58:42;;;;;;;1.17;0.47;;;;;;;;;;4990410;28;98501;-61
2022/07/06 08:01:08;;;;;;;0.47;0.20;;;;;;;;;;4990556;28;100191;-61
2022/07/06 08:03:35;;;;;;;0.40;0.40;;;;;;;;;;4989723;28;99375;-61
2022/07/06 08:06:01;;;;;;;0.80;0.47;;;;;;;;;;4990313;28;98083;-61
2022/07/06 08:08:28;;;;;;;0.52;0.30;;;;;;;;;;4990306;28;99932;-61
2022/07/06 08:10:54;;;;;;;0.47;0.35;;;;;;;;;;4989814;28;99590;-62
2022/07/06 08:13:40;;;;;;;1.23;0.50;;;;;;;;;;4991221;28;99328;-61
2022/07/06 08:16:08;;;;;;;0.95;0.40;;;;;;;;;;4993395;28;101298;-62
2022/07/06 08:18:34;;;;;;;0.45;0.30;;;;;;;;;;4996388;28;99477;-61
2022/07/06 08:21:01;;;;;;;0.40;0.35;;;;;;;;;;4993687;28;100167;-61
2022/07/06 08:23:47;;;;;;;1.45;0.20;;;;;;;;;;4993083;28;99160;-61
2022/07/06 08:26:13;;;;;;;0.30;0.30;;;;;;;;;;4993389;28;98565;-61
2022/07/06 08:28:59;;;;;;;0.30;0.30;;;;;;;;;;4993356;28;98507;-61
2022/07/06 08:31:27;;;;;;;1.45;0.65;;;;;;;;;;4993676;28;99780;-62
2022/07/06 08:34:13;;;;;;;0.75;0.60;;;;;;;;;;4993181;28;98514;-61
2022/07/06 08:36:39;;;;;;;0.88;0.55;;;;;;;;;;4993293;28;99868;-61
2022/07/06 08:39:06;;;;;;;1.90;0.30;;;;;;;;;;4992177;28;100241;-61
2022/07/06 08:41:32;;;;;;;0.73;0.50;;;;;;;;;;4996487;28;98758;-61
2022/07/06 08:43:58;;;;;;;1.08;0.30;;;;;;;;;;4992782;28;100724;-61
2022/07/06 08:46:27;;;;;;;0.80;0.40;;;;;;;;;;4992922;28;98433;-61
2022/07/06 08:48:53;;;;;;;0.73;0.20;;;;;;;;;;4992965;28;99312;-61
2022/07/06 08:51:20;;;;;;;0.65;0.35;;;;;;;;;;4992580;28;99493;-61
2022/07/06 08:53:53;;;;;;;0.40;0.20;;;;;;;;;;4992318;28;98505;-61
2022/07/06 08:56:20;;;;;;;0.63;0.43;;;;;;;;;;4993521;28;99381;-62
2022/07/06 08:58:46;;;;;;;0.45;0.32;;;;;;;;;;4991415;28;99771;-61
2022/07/06 09:01:12;;;;;;;1.90;0.40;;;;;;;;;;4992798;28;98624;-61
2022/07/06 09:03:40;;;;;;;0.55;0.55;;;;;;;;;;4994986;28;100234;-61
2022/07/06 09:06:07;;;;;;;0.93;0.47;;;;;;;;;;4992627;28;98498;-62
2022/07/06 09:08:36;;;;;;;1.75;0.47;;;;;;;;;;4991078;28;99541;-61
2022/07/06 09:11:03;;;;;;;1.15;0.50;;;;;;;;;;4992168;28;99730;-62
2022/07/06 09:13:29;;;;;;;1.63;0.60;;;;;;;;;;4992314;28;99231;-61
2022/07/06 09:16:08;;;;;;;0.45;0.30;;;;;;;;;;4992450;28;99221;-61
2022/07/06 09:18:54;;;;;;;0.45;0.40;;;;;;;;;;4991930;28;98991;-61
2022/07/06 09:21:31;;;;;;;0.63;0.22;;;;;;;;;;4993128;28;97758;-61
2022/07/06 09:23:59;;;;;;;0.40;0.20;;;;;;;;;;4991525;28;98667;-61
2022/07/06 09:26:26;;;;;;;0.70;0.30;;;;;;;;;;4994947;28;99781;-61
2022/07/06 09:28:54;;;;;;;1.42;0.40;;;;;;;;;;4992115;28;100257;-61
2022/07/06 09:31:20;;;;;;;0.25;0.20;;;;;;;;;;4992102;28;100578;-61
2022/07/06 09:34:05;;;;;;;0.47;0.40;;;;;;;;;;4992157;28;98497;-62
2022/07/06 09:36:38;;;;;;;0.30;0.20;;;;;;;;;;4992453;28;99190;-61
2022/07/06 09:39:21;;;;;;;0.65;0.25;;;;;;;;;;4992236;28;102644;-62
2022/07/06 09:41:57;;;;;;;0.47;0.30;;;;;;;;;;4992129;28;98478;-62
2022/07/06 09:44:24;;;;;;;0.63;0.40;;;;;;;;;;4990628;28;98861;-62
2022/07/06 09:46:51;;;;;;;0.70;0.50;;;;;;;;;;4992361;28;98972;-61
2022/07/06 09:49:18;;;;;;;0.35;0.20;;;;;;;;;;4995127;28;98498;-61
2022/07/06 09:51:46;;;;;;;0.40;0.30;;;;;;;;;;4991861;28;99464;-61
2022/07/06 09:54:12;;;;;;;0.40;0.40;;;;;;;;;;4991276;28;99377;-61
2022/07/06 09:56:39;;;;;;;0.85;0.40;;;;;;;;;;4991031;28;99969;-61
2022/07/06 09:59:12;;;;;;;0.30;0.30;;;;;;;;;;4991630;28;100528;-61
2022/07/06 10:01:39;;;;;;;0.40;0.30;;;;;;;;;;4991811;28;98630;-61
2022/07/06 10:04:09;;;;;;;0.55;0.40;;;;;;;;;;4991682;28;99462;-62
2022/07/06 10:06:36;;;;;;;1.70;0.40;;;;;;;;;;4991242;28;99851;-61
2022/07/06 10:09:05;;;;;;;1.48;0.40;;;;;;;;;;4994886;28;98534;-61
2022/07/06 10:11:40;;;;;;;1.02;0.38;;;;;;;;;;4991859;28;98801;-61
2022/07/06 10:14:07;;;;;;;0.40;0.40;;;;;;;;;;4991666;28;98482;-61
2022/07/06 10:16:37;;;;;;;0.32;0.32;;;;;;;;;;4991295;28;99258;-61
2022/07/06 10:19:07;;;;;;;0.25;0.20;;;;;;;;;;4990689;28;101404;-61
2022/07/06 10:21:37;;;;;;;0.45;0.40;;;;;;;;;;4991401;28;98490;-61
2022/07/06 10:24:03;;;;;;;;;;;;;;;;;;4991891;28;99527;-61
2022/07/06 10:26:30;;;;;;;0.47;0.30;;;;;;;;;;4991930;28;128939;-61
2022/07/06 10:28:58;;;;;;;1.02;0.50;;;;;;;;;;4991588;28;98542;-61
2022/07/06 10:31:24;;;;;;;0.35;0.35;;;;;;;;;;4994291;28;99677;-62
2022/07/06 10:33:52;;;;;;;0.52;0.38;;;;;;;;;;4991114;28;98486;-62
2022/07/06 10:36:18;;;;;;;0.75;0.43;;;;;;;;;;4991746;28;101609;-61
2022/07/06 10:38:48;;;;;;;1.77;0.35;;;;;;;;;;4991259;28;100158;-61
2022/07/06 10:41:14;;;;;;;0.85;0.45;;;;;;;;;;4991596;28;98666;-61
2022/07/06 10:43:45;;;;;;;0.38;0.22;;;;;;;;;;4991109;28;99126;-61
2022/07/06 10:46:16;;;;;;;0.20;0.20;;;;;;;;;;4990498;28;99404;-61
2022/07/06 10:48:46;;;;;;;0.32;0.25;;;;;;;;;;4991390;28;98524;-61
2022/07/06 10:51:21;;;;;;;0.77;0.40;;;;;;;;;;4990931;28;99155;-61
2022/07/06 10:53:54;;;;;;;1.40;0.40;;;;;;;;;;4994020;28;100273;-61
2022/07/06 10:56:31;;;;;;;0.80;0.30;;;;;;;;;;4991310;28;100209;-61
2022/07/06 10:59:11;;;;;;;0.25;0.25;;;;;;;;;;4990874;28;100520;-62
2022/07/06 11:01:38;;;;;;;0.52;0.40;;;;;;;;;;4991327;28;97823;-61
2022/07/06 11:04:12;;;;;;;0.35;0.28;;;;;;;;;;4990834;28;99443;-62
2022/07/06 11:06:39;;;;;;;0.30;0.30;;;;;;;;;;4990509;28;99815;-61
2022/07/06 11:09:07;;;;;;;0.25;0.25;;;;;;;;;;4990338;28;99299;-61
2022/07/06 11:11:33;;;;;;;1.45;0.43;;;;;;;;;;4991050;28;103074;-62
2022/07/06 11:14:02;;;;;;;0.30;0.30;;;;;;;;;;4989166;28;99466;-61
2022/07/06 11:16:38;;;;;;;1.67;0.50;;;;;;;;;;4993386;28;98796;-61
2022/07/06 11:19:04;;;;;;;0.35;0.35;;;;;;;;;;4990174;28;99396;-61
2022/07/06 11:21:35;;;;;;;0.43;0.22;;;;;;;;;;4990883;28;98789;-62
2022/07/06 11:24:03;;;;;;;2.35;0.40;;;;;;;;;;4989595;28;100672;-61
2022/07/06 11:26:30;;;;;;;0.60;0.40;;;;;;;;;;4990609;28;98828;-62
2022/07/06 11:29:06;;;;;;;1.13;0.50;;;;;;;;;;4990777;28;98475;-61
2022/07/06 11:31:33;;;;;;;1.27;0.30;;;;;;;;;;4990588;28;99413;-61
2022/07/06 11:34:00;;;;;;;0.50;0.30;;;;;;;;;;4989869;28;100717;-61
2022/07/06 11:36:27;;;;;;;0.70;0.30;;;;;;;;;;4990240;28;98505;-62
2022/07/06 11:39:00;;;;;;;2.85;0.43;;;;;;;;;;4993546;28;99192;-61
2022/07/06 11:41:26;;;;;;;0.35;0.30;;;;;;;;;;4990364;28;98491;-61
2022/07/06 11:43:53;;;;;;;0.82;0.40;;;;;;;;;;4990616;28;99604;-62
2022/07/06 11:46:20;;;;;;;0.40;0.40;;;;;;;;;;4989618;28;100007;-61
2022/07/06 11:48:47;;;;;;;0.35;0.20;;;;;;;;;;4992254;28;98634;-61
2022/07/06 11:51:14;;;;;;;0.40;0.40;;;;;;;;;;4994304;28;99097;-61
2022/07/06 11:53:44;;;;;;;0.50;0.35;;;;;;;;;;4993583;28;99794;-61
2022/07/06 11:56:10;;;;;;;0.68;0.20;;;;;;;;;;4993752;28;98592;-62
2022/07/06 11:58:38;;;;;;;1.02;0.30;;;;;;;;;;4993315;28;99261;-61
2022/07/06 12:01:05;;;;;;;0.30;0.30;;;;;;;;;;4996641;28;100175;-61
2022/07/06 12:03:32;;;;;;;1.08;0.50;;;;;;;;;;4993194;28;99276;-61
2022/07/06 12:05:59;;;;;;;0.40;0.30;;;;;;;;;;4992939;28;98514;-61
2022/07/06 12:08:25;;;;;;;0.70;0.38;;;;;;;;;;4993631;28;98519;-61
2022/07/06 12:10:52;;;;;;;0.30;0.20;;;;;;;;;;4992625;28;100413;-62
2022/07/06 12:13:19;;;;;;;2.25;0.30;;;;;;;;;;4993294;28;100622;-62
2022/07/06 12:15:45;;;;;;;0.20;0.20;;;;;;;;;;4993331;28;97755;-61
2022/07/06 12:18:11;;;;;;;0.50;0.28;;;;;;;;;;4993288;28;99540;-62
2022/07/06 12:20:38;;;;;;;0.73;0.40;;;;;;;;;;4995995;28;99500;-61
2022/07/06 12:23:05;;;;;;;0.28;0.20;;;;;;;;;;4993098;28;100208;-62
2022/07/06 12:25:35;;;;;;;0.30;0.30;;;;;;;;;;4992718;28;99615;-61
2022/07/06 12:28:01;;;;;;;0.55;0.45;;;;;;;;;;4993602;28;98537;-61
2022/07/06 12:30:28;;;;;;;0.60;0.25;;;;;;;;;;4992949;28;99364;-62
2022/07/06 12:33:18;;;;;;;0.55;0.20;;;;;;;;;;4992919;28;99690;-61
2022/07/06 12:35:44;;;;;;;0.30;0.30;;;;;;;;;;4993277;28;98463;-61
2022/07/06 12:38:11;;;;;;;0.47;0.35;;;;;;;;;;4993259;28;99139;-61
2022/07/06 12:40:37;;;;;;;0.50;0.30;;;;;;;;;;4993324;28;98765;-61
2022/07/06 12:43:04;;;;;;;0.70;0.30;;;;;;;;;;4996212;28;98507;-61
2022/07/06 12:45:31;;;;;;;0.20;0.20;;;;;;;;;;4992485;28;99850;-61
2022/07/06 12:48:01;;;;;;;0.30;0.30;;;;;;;;;;4992605;28;99248;-61
2022/07/06 12:50:34;;;;;;;0.32;0.30;;;;;;;;;;4992751;28;98520;-61
2022/07/06 12:53:01;;;;;;;0.35;0.30;;;;;;;;;;4992705;28;99559;-61
2022/07/06 12:55:28;;;;;;;0.98;0.40;;;;;;;;;;4992249;28;98541;-61
2022/07/06 12:57:55;;;;;;;0.32;0.32;;;;;;;;;;4992894;28;99340;-62
2022/07/06 13:00:21;;;;;;;0.30;0.30;;;;;;;;;;4992470;28;100555;-61
2022/07/06 13:02:53;;;;;;;0.35;0.30;;;;;;;;;;4992502;28;98726;-61
2022/07/06 13:05:38;;;;;;;0.63;0.30;;;;;;;;;;4996473;28;100510;-62
2022/07/06 13:08:04;;;;;;;1.17;0.30;;;;;;;;;;4993057;28;98487;-61
2022/07/06 13:10:30;;;;;;;0.47;0.30;;;;;;;;;;4993005;28;100604;-62
2022/07/06 13:12:57;;;;;;;0.30;0.30;;;;;;;;;;4991500;28;100276;-61
2022/07/06 13:15:24;;;;;;;2.08;0.30;;;;;;;;;;4992752;28;98776;-61
2022/07/06 13:17:50;;;;;;;0.20;0.20;;;;;;;;;;4991392;28;100532;-61
2022/07/06 13:20:18;;;;;;;0.63;0.40;;;;;;;;;;4990697;28;99482;-61
2022/07/06 13:22:44;;;;;;;0.20;0.20;;;;;;;;;;4991039;28;98516;-61
2022/07/06 13:25:12;;;;;;;0.82;0.43;;;;;;;;;;4991556;28;100185;-61
2022/07/06 13:27:38;;;;;;;0.35;0.30;;;;;;;;;;4994079;28;99676;-61
2022/07/06 13:30:05;;;;;;;0.68;0.38;;;;;;;;;;4991837;28;99564;-61
2022/07/06 13:32:32;;;;;;;1.35;0.40;;;;;;;;;;4990937;28;100577;-62
2022/07/06 13:34:58;;;;;;;0.75;0.52;;;;;;;;;;4991041;28;98558;-62
2022/07/06 13:37:25;;;;;;;0.35;0.35;;;;;;;;;;4990801;28;99647;-61
2022/07/06 13:39:51;;;;;;;0.28;0.28;;;;;;;;;;4990913;28;99196;-61
2022/07/06 13:42:17;;;;;;;0.73;0.43;;;;;;;;;;4991118;28;98423;-61
2022/07/06 13:44:44;;;;;;;1.52;0.52;;;;;;;;;;4991128;28;99196;-62
2022/07/06 13:47:10;;;;;;;0.45;0.43;;;;;;;;;;4990259;28;99780;-61
2022/07/06 13:49:36;;;;;;;1.15;0.60;;;;;;;;;;4994118;28;98573;-62
2022/07/06 13:52:03;;;;;;;0.52;0.38;;;;;;;;;;4990163;28;99461;-61
2022/07/06 13:54:30;;;;;;;0.25;0.22;;;;;;;;;;4991379;28;97774;-62
2022/07/06 13:56:57;;;;;;;0.68;0.40;;;;;;;;;;4990758;28;99596;-61
2022/07/06 13:59:23;;;;;;;1.23;0.43;;;;;;;;;;4989256;28;100559;-61
2022/07/06 14:01:49;;;;;;;0.47;0.25;;;;;;;;;;4990359;28;99697;-61
2022/07/06 14:04:16;;;;;;;0.95;0.47;;;;;;;;;;4990213;28;99757;-61
2022/07/06 14:06:42;;;;;;;0.98;0.40;;;;;;;;;;4990045;28;100145;-61
2022/07/06 14:09:08;;;;;;;4.50;0.57;;;;;;;;;;4990567;28;98856;-61
2022/07/06 14:11:35;;;;;;;0.40;0.40;;;;;;;;;;4992515;28;99681;-62
2022/07/06 14:14:01;;;;;;;1.00;0.40;;;;;;;;;;4990255;28;98550;-61
2022/07/06 14:16:27;;;;;;;2.25;0.60;;;;;;;;;;4950719;28;1104314;-61
2022/07/06 14:18:54;;;;;;;2.58;0.50;;;;;;;;;;4991338;28;98754;-61
2022/07/06 14:21:20;;;;;;;0.47;0.30;;;;;;;;;;4990455;28;98497;-61
2022/07/06 14:23:48;;;;;;;0.65;0.35;;;;;;;;;;4991727;28;99746;-62
2022/07/06 14:26:14;;;;;;;0.60;0.35;;;;;;;;;;4990772;28;100396;-61
2022/07/06 14:28:40;;;;;;;0.68;0.40;;;;;;;;;;4991661;28;98667;-61
2022/07/06 14:31:07;;;;;;;0.70;0.50;;;;;;;;;;4994642;28;100214;-61
2022/07/06 14:33:33;;;;;;;1.10;0.40;;;;;;;;;;4991056;28;98461;-61
2022/07/06 14:35:59;;;;;;;1.55;0.50;;;;;;;;;;4991399;28;99543;-62
2022/07/06 14:38:27;;;;;;;1.05;0.50;;;;;;;;;;4990972;28;99523;-62
2022/07/06 14:40:53;;;;;;;0.32;0.32;;;;;;;;;;4991343;28;98548;-61
2022/07/06 14:43:20;;;;;;;0.90;0.30;;;;;;;;;;4991897;28;98884;-61
2022/07/06 14:45:46;;;;;;;0.60;0.35;;;;;;;;;;4991057;28;99871;-61